• Join FlightAware (Why Join?)
  • Login
  • US Flag 
09:34PM EDT


 

Airport Tracker/Info


-or-


 

Live Flight TrackerFlight Track Log ✈ AMF1990 ✈ 13-Dec-2013 ✈ KCRP - KMAF

Flight Track Log - Related Links

Times and Time Zones

All times are in EST time to prevent confusion due to time zone crossing. See the AMF1990 flight status page for this flight to view local times or setup timezone preferences in your user account.

Time Position Orientation Groundspeed Altitude Reporting Facility
EST Latitude Longitude Course Direction KTS MPH feet Rate Location/Type
12:01PM 27.7583 -97.4986 319° Northwest 142 163 1,200  Level Houston Center
12:02PM 27.7186 -97.5008 183° South 141 162 4,000 2,040 Climbing Houston Center
12:03PM 27.6969 -97.4942 165° South 147 169 4,900 840 Climbing Houston Center
12:03PM 27.6753 -97.4911 173° South 163 188 4,900 660 Level Houston Center
12:04PM 27.6386 -97.4975 189° South 197 227 5,700 1,320 Climbing Houston Center
12:04PM 27.6331 -97.5106 244° Southwest 191 220 6,300 3,000 Climbing Houston Center
12:05PM 27.6617 -97.5367 321° Northwest 200 230 8,800 3,000 Climbing Houston Center
12:05PM 27.6739 -97.5456 327° Northwest 191 220 9,400 2,220 Climbing Houston Center
12:06PM 28.0747 -97.8253 319° Northwest  Level Estimated
12:06PM 27.7206 -97.5819 325° Northwest 186 214 11,700  Level Houston Center
12:07PM 27.7664 -97.6161 327° Northwest 195 224 13,600 1,500 Climbing Houston Center
12:08PM 27.8144 -97.6503 328° Northwest 199 229 14,900 1,080 Climbing Houston Center
12:09PM 27.8686 -97.6919 326° Northwest 229 264 15,900 1,200 Climbing Houston Center
12:10PM 27.9211 -97.7258 330° Northwest 215 247 17,400 1,200 Climbing Houston Center
12:11PM 27.9775 -97.7647 329° Northwest 215 247 18,500 1,020 Climbing Houston Center
12:12PM 28.0275 -97.8039 325° Northwest 215 247 19,600 720 Climbing Houston Center
12:13PM 28.0783 -97.8453 324° Northwest 222 255 20,000 180 Climbing Houston Center
12:14PM 28.1033 -97.9089 294° West 220 253 20,000  Level Houston Center
12:15PM 28.1292 -97.9753 294° West 227 261 20,000 -60 Level Houston Center
12:16PM 28.1650 -98.0456 300° West 234 269 19,900  Descending Houston Center
12:18PM 28.2403 -98.0700 344° North 271 312 20,000  Climbing Houston Center
12:19PM 28.3139 -98.0981 341° North 272 313 20,000  Level Houston Center
12:20PM 28.3897 -98.1203 346° North 276 318 20,000  Level Houston Center
12:21PM 28.4664 -98.1422 346° North 278 320 20,000  Level Houston Center
12:22PM 28.5353 -98.1761 337° Northwest 264 304 20,000  Level Houston Center
12:23PM 28.6131 -98.2069 341° North 274 315 20,000  Level Houston Center
12:24PM 28.6881 -98.2256 348° North 270 311 20,000  Level Houston Center
12:25PM 28.7642 -98.2408 350° North 262 302 20,000  Level Houston Center
12:26PM 28.8339 -98.2594 347° North 254 292 20,000  Level Houston Center
12:27PM 28.9094 -98.2769 349° North 257 296 20,000  Level Houston Center
12:28PM 28.9797 -98.2936 348° North 259 298 20,000  Level Houston Center
12:29PM 29.0492 -98.3081 350° North 253 291 20,000  Level Houston Center
12:30PM 29.1292 -98.3281 348° North 273 314 20,000  Level Houston Center
12:31PM 29.2022 -98.3492 346° North 274 315 20,000  Level Houston Center
12:32PM 29.2819 -98.3697 347° North 275 316 20,000  Level Houston Center
12:33PM 29.3567 -98.3883 348° North 275 316 20,000  Level Houston Center
12:34PM 29.4375 -98.4092 347° North 276 318 20,000  Level Houston Center
12:35PM 29.5117 -98.4303 346° North 275 316 20,000  Level Houston Center
12:36PM 29.5786 -98.4481 347° North 279 321 20,000  Level Houston Center
12:37PM 29.6578 -98.4919 334° Northwest 249 287 20,000  Level Houston Center
12:38PM 29.7028 -98.5486 312° West 241 277 20,000  Level Houston Center
12:39PM 29.7536 -98.6103 314° West 246 283 20,000  Level Houston Center
12:40PM 29.8003 -98.6667 314° West 244 281 20,100  Climbing Houston Center
12:41PM 29.8392 -98.7328 304° West 233 268 20,000 -60 Descending Houston Center
12:42PM 29.8764 -98.7939 305° West 233 268 20,000  Level Houston Center
12:43PM 29.9225 -98.8575 310° West 240 276 20,000  Level Houston Center
12:44PM 29.9661 -98.9164 311° West 243 280 20,000  Level Houston Center
12:45PM 30.0067 -98.9772 308° West 241 277 20,000  Level Houston Center
12:47PM 30.0533 -99.0447 309° West 250 288 20,000  Level Houston Center
12:48PM 30.0989 -99.1067 310° West 252 290 20,000  Level Houston Center
12:49PM 30.1450 -99.1664 312° West 250 288 20,000  Level Houston Center
12:50PM 30.1861 -99.2289 307° West 245 282 20,000  Level Houston Center
12:51PM 30.2208 -99.2950 301° West 242 278 20,000  Level Houston Center
12:52PM 30.2600 -99.3586 305° West 242 278 20,000  Level Houston Center
12:53PM 30.3083 -99.4328 307° West 242 278 20,000  Level Houston Center
12:54PM 30.3478 -99.4953 306° West 241 277 20,000  Level Houston Center
12:55PM 30.3883 -99.5550 308° West 238 274 20,000  Level Houston Center
12:56PM 30.4275 -99.6142 308° West 234 269 20,000  Level Houston Center
12:57PM 30.4658 -99.6733 307° West 232 267 20,000  Level Houston Center
12:58PM 30.5081 -99.7450 304° West 226 260 20,000  Level Houston Center
12:59PM 30.5419 -99.8058 303° West 226 260 20,000  Level Houston Center
01:00PM 30.5764 -99.8647 304° West 222 255 20,000  Level Houston Center
01:01PM 30.6117 -99.9239 305° West 224 258 20,000  Level Houston Center
01:02PM 30.6458 -99.9850 303° West 226 260 20,000  Level Houston Center
01:03PM 30.6892 -100.0569 305° West 227 261 20,000  Level Houston Center
01:04PM 30.7239 -100.1167 304° West 226 260 20,000  Level Houston Center
01:05PM 30.7583 -100.1767 304° West 225 259 20,000  Level Houston Center
01:06PM 30.7911 -100.2333 304° West 220 253 20,000  Level Houston Center
01:07PM 30.8247 -100.2947 303° West 219 252 20,000  Level Houston Center
01:08PM 30.8664 -100.3628 306° West 218 251 20,000  Level Houston Center
01:09PM 30.8994 -100.4203 304° West 216 249 20,000  Level Houston Center
01:10PM 30.9333 -100.4761 305° West 211 243 20,000  Level Houston Center
01:11PM 30.9661 -100.5342 303° West 213 245 20,000  Level Houston Center
01:12PM 30.9992 -100.5894 305° West 211 243 20,000  Level Houston Center
01:13PM 31.0347 -100.6458 306° West 216 249 20,000  Level Houston Center
01:14PM 31.0797 -100.7142 308° West 222 255 20,000  Level Houston Center
01:16PM 31.1169 -100.7711 307° West 221 254 20,000  Level Houston Center
01:17PM 31.1525 -100.8283 306° West 220 253 20,000  Level Houston Center
01:18PM 31.1878 -100.8850 306° West 217 250 20,000  Level Houston Center
01:19PM 31.2258 -100.9397 309° West 217 250 20,000  Level Houston Center
01:20PM 31.2631 -101.0083 302° West 210 242 20,000 -660 Level Houston Center
01:21PM 31.2950 -101.0681 302° West 217 250 18,700 -1,260 Descending Houston Center
01:22PM 31.3267 -101.1297 301° West 221 254 17,500 -1,260 Descending Houston Center
01:23PM 31.3650 -101.1900 307° West 227 261 16,100 -1,380 Descending Houston Center
01:24PM 31.4097 -101.2683 304° West 237 273 14,500 -1,020 Descending Fort Worth Center
01:25PM 31.4442 -101.3311 303° West 232 267 13,900 -300 Descending Fort Worth Center
01:26PM 31.4747 -101.4064 295° West 216 249 14,000  Climbing Fort Worth Center
01:27PM 31.4981 -101.4703 293° West 213 245 14,000 -480 Level Fort Worth Center
01:28PM 31.5256 -101.5336 297° West 216 249 13,100 -1,260 Descending Fort Worth Center
01:29PM 31.5514 -101.6006 294° West 224 258 11,400 -1,800 Descending Fort Worth Center
01:30PM 31.5942 -101.6553 313° West 229 264 9,500 -1,800 Descending Fort Worth Center
01:31PM 31.6383 -101.7161 310° West 211 243 7,800 -1,680 Descending Fort Worth Center
01:32PM 31.6717 -101.7617 311° West 192 221 6,100 -840 Descending Fort Worth Center
01:33PM 31.7050 -101.8136 307° West 196 226 6,100  Level Fort Worth Center
01:34PM 31.7364 -101.8636 306° West 193 222 6,100  Level Fort Worth Center
01:35PM 31.7861 -101.8892 336° Northwest 203 234 6,100 -60 Level Fort Worth Center
01:36PM 31.8469 -101.9194 337° Northwest 198 228 6,000 -60 Descending Fort Worth Center
01:37PM 31.8975 -101.9442 337° Northwest 198 228 6,000 -60 Level Fort Worth Center
01:38PM 31.9436 -101.9750 330° Northwest 191 220 5,900 -420 Descending Fort Worth Center
01:40PM 31.9872 -102.0156 322° Northwest 196 226 5,200 -480 Descending Fort Worth Center
01:41PM 32.0233 -102.0606 313° West 194 223 5,000 -120 Descending Fort Worth Center
01:42PM 32.0275 -102.1150 275° West 174 200 5,000 -360 Level Fort Worth Center
01:43PM 32.0161 -102.1767 258° West 165 190 4,300 -660 Descending Fort Worth Center
01:44PM 31.9931 -102.2083 229° Southwest 148 170 3,700 -600 Descending Fort Worth Center
01:45PM 31.9561 -102.2069 178° South 132 152 3,100 -600 Descending Fort Worth Center